Terminal Aerodrome Forecast
Issued by NWS Des Moines, IA

Home | Current Version | Previous Version | Text Only | Print | Product List | Glossary On
Versions: 1 2 3 4 5 6 7 8 9 10 11 12 13 14 15 16 17 18 19 20 21 22 23
000
FTUS43 KDMX 300520
TAFALO
TAF
KALO 300520Z 3006/3106 07019G28KT 3SM BR OVC011
      TEMPO 3006/3008 2SM -RA BR BKN008
     FM300800 07017G24KT 5SM -RA OVC007
     FM302000 03015KT P6SM VCSH OVC010
     FM310400 01010KT 4SM BR OVC008=

USA.gov is the U.S. government's official web portal to all federal, state and local government web resources and services.